Aventura, Florida
Current Conditions -  °F | °C
As of 8:53 AM on Thursday 29 Jan 2015 (Local Time) from KHWO Reporting Station
Few Clouds Few Clouds  
Wind Chill: 60°   Ceiling: Unl
Heat Index: 60°   Visibility: 10mi
Dew Point: 51°   Wind: 3mph
Humidity: 72%   Direction: 360°N
Pressure: 30.26"   Gusts: NA
Location:  25.9536°N, 80.1568°W
Report Text: KHWO 291353Z 36003KT 10SM FEW048 16/11 A3026 RMK AO2 SLP248 T01560106
Loading
Personal Weather Stations






























Interactive Weather Map New forecast layout! Learn more

10-Day Weather Forecast

Advertisements
Track Severe Weather on mobile